createdAt,value
2023-04-04T00:02:55.477Z,8.29
2023-04-04T00:07:49.048Z,8.64
2023-04-04T00:12:44.163Z,8.51
2023-04-04T00:17:37.445Z,8.51
2023-04-04T00:22:30.694Z,8.25
2023-04-04T00:27:24.036Z,8.65
2023-04-04T00:32:18.691Z,8.50
2023-04-04T00:37:13.164Z,8.52
2023-04-04T00:42:07.813Z,8.68
2023-04-04T00:47:01.262Z,8.49
2023-04-04T00:51:59.457Z,7.90
2023-04-04T00:56:55.684Z,8.52
2023-04-04T01:01:49.530Z,8.42
2023-04-04T01:06:42.894Z,8.33
2023-04-04T01:11:37.755Z,8.03
2023-04-04T01:16:31.916Z,8.15
2023-04-04T01:21:26.058Z,7.88
2023-04-04T01:26:27.208Z,7.21
2023-04-04T01:31:30.104Z,7.68
2023-04-04T01:36:32.026Z,7.35
2023-04-04T01:41:28.635Z,7.88
2023-04-04T01:46:25.313Z,7.59
2023-04-04T01:51:19.254Z,7.57
2023-04-04T01:56:13.276Z,7.37
2023-04-04T02:01:08.320Z,6.90
2023-04-04T02:06:01.636Z,7.54
2023-04-04T02:10:54.969Z,7.21
2023-04-04T02:15:49.617Z,7.44
2023-04-04T02:20:44.296Z,7.20
2023-04-04T02:25:37.529Z,6.69
2023-04-04T02:30:31.290Z,6.67
2023-04-04T02:35:24.998Z,7.04
2023-04-04T02:40:19.780Z,6.66
2023-04-04T02:45:14.899Z,6.99
2023-04-04T02:50:15.664Z,7.12
2023-04-04T02:55:10.016Z,6.80
2023-04-04T03:00:14.947Z,6.98
2023-04-04T03:05:09.315Z,6.48
2023-04-04T03:10:02.896Z,5.54
2023-04-04T03:14:56.455Z,6.63
2023-04-04T03:19:51.185Z,5.99
2023-04-04T03:24:45.373Z,6.69
2023-04-04T03:29:39.788Z,6.61
2023-04-04T03:34:34.145Z,6.45
2023-04-04T03:39:32.032Z,6.30
2023-04-04T03:44:25.557Z,6.44
2023-04-04T03:49:19.096Z,6.35
2023-04-04T03:54:12.572Z,6.29
2023-04-04T03:59:07.874Z,5.63
2023-04-04T04:04:04.261Z,6.06
2023-04-04T04:08:58.467Z,6.21
2023-04-04T04:13:54.112Z,6.19
2023-04-04T04:18:49.065Z,5.78
2023-04-04T04:23:51.644Z,6.08
2023-04-04T04:28:45.004Z,6.16
2023-04-04T04:33:46.251Z,6.11
2023-04-04T04:38:41.653Z,5.32
2023-04-04T04:43:37.085Z,5.37
2023-04-04T04:48:31.922Z,5.25
2023-04-04T04:53:26.943Z,5.93
2023-04-04T04:58:24.696Z,5.72
2023-04-04T05:03:21.845Z,5.87
2023-04-04T05:08:16.981Z,6.00
2023-04-04T05:13:21.952Z,5.57
2023-04-04T05:18:16.448Z,5.83
2023-04-04T05:23:11.354Z,5.21
2023-04-04T05:28:08.191Z,5.25
2023-04-04T05:33:10.047Z,5.89
2023-04-04T05:38:07.650Z,5.83
2023-04-04T05:43:04.441Z,5.45
2023-04-04T05:48:11.282Z,5.67
2023-04-04T05:53:15.435Z,5.58
2023-04-04T05:58:12.620Z,5.45
2023-04-04T06:03:18.457Z,5.30
2023-04-04T06:08:14.672Z,5.39
2023-04-04T06:13:08.005Z,5.25
2023-04-04T06:18:04.760Z,5.10
2023-04-04T06:23:04.711Z,5.42
2023-04-04T06:28:00.819Z,5.15
2023-04-04T06:32:54.775Z,5.46
2023-04-04T06:37:56.124Z,5.40
2023-04-04T06:42:55.213Z,5.43
2023-04-04T06:47:51.952Z,5.17
2023-04-04T06:52:45.268Z,5.38
2023-04-04T06:57:38.553Z,5.38
2023-04-04T07:02:33.218Z,4.98
2023-04-04T07:07:26.624Z,5.26
2023-04-04T07:12:19.803Z,5.43
2023-04-04T07:17:21.841Z,5.45
2023-04-04T07:22:19.173Z,5.30
2023-04-04T07:27:15.398Z,5.32
2023-04-04T07:32:08.887Z,5.34
2023-04-04T07:37:02.392Z,5.47
2023-04-04T07:41:57.247Z,5.29
2023-04-04T07:47:02.483Z,5.47
2023-04-04T07:52:02.499Z,5.43
2023-04-04T07:56:57.389Z,5.37
2023-04-04T08:01:50.727Z,5.03
2023-04-04T08:06:43.997Z,5.10
2023-04-04T08:11:37.880Z,5.38
2023-04-04T08:16:32.830Z,4.36
2023-04-04T08:21:26.190Z,5.38
2023-04-04T08:26:19.502Z,5.18
2023-04-04T08:31:12.996Z,5.22
2023-04-04T08:36:07.883Z,4.91
2023-04-04T08:41:01.353Z,5.32
2023-04-04T08:45:55.702Z,5.43
2023-04-04T08:50:49.694Z,5.14
2023-04-04T08:55:45.028Z,5.39
2023-04-04T09:00:40.705Z,4.78
2023-04-04T09:05:34.424Z,4.28
2023-04-04T09:10:29.388Z,5.12
2023-04-04T09:15:24.350Z,5.01
2023-04-04T09:20:41.211Z,5.02
2023-04-04T09:25:34.894Z,5.38
2023-04-04T09:30:29.538Z,4.57
2023-04-04T09:35:23.022Z,4.83
2023-04-04T09:40:17.452Z,5.36
2023-04-04T09:45:16.935Z,5.17
2023-04-04T09:50:23.036Z,5.18
2023-04-04T09:55:16.888Z,5.26
2023-04-04T10:00:13.291Z,5.28
2023-04-04T10:05:11.505Z,5.26
2023-04-04T10:10:09.355Z,5.24
2023-04-04T10:15:05.482Z,4.88
2023-04-04T10:20:01.275Z,5.10
2023-04-04T10:24:54.878Z,5.35
2023-04-04T10:29:49.688Z,5.11
2023-04-04T10:34:48.864Z,5.56
2023-04-04T10:39:53.669Z,5.56
2023-04-04T10:44:48.423Z,5.56
2023-04-04T10:49:44.991Z,5.58
2023-04-04T10:54:44.162Z,5.54
2023-04-04T10:59:57.605Z,5.53
2023-04-04T11:04:52.267Z,5.38
2023-04-04T11:09:53.497Z,5.51
2023-04-04T11:14:57.088Z,5.52
2023-04-04T11:20:01.387Z,5.60
2023-04-04T11:25:01.648Z,5.89
2023-04-04T11:29:54.935Z,5.74
2023-04-04T11:34:49.241Z,5.81
2023-04-04T11:39:57.302Z,5.81
2023-04-04T11:45:04.462Z,5.50
2023-04-04T11:49:58.344Z,4.79
2023-04-04T11:54:54.390Z,5.88
2023-04-04T11:59:52.549Z,5.90
2023-04-04T12:04:49.024Z,5.80
2023-04-04T12:09:46.187Z,5.89
2023-04-04T12:14:41.690Z,5.89
2023-04-04T12:19:38.864Z,5.91
2023-04-04T12:24:32.582Z,5.57
2023-04-04T12:29:36.285Z,5.64
2023-04-04T12:34:34.003Z,5.53
2023-04-04T12:39:30.695Z,5.45
2023-04-04T12:44:29.410Z,5.97
2023-04-04T12:49:23.350Z,6.09
2023-04-04T12:54:30.874Z,5.92
2023-04-04T12:59:25.827Z,5.56
2023-04-04T13:04:21.037Z,6.04
2023-04-04T13:09:20.282Z,6.02
2023-04-04T13:14:15.173Z,5.57
2023-04-04T13:19:08.668Z,6.00
2023-04-04T13:24:04.057Z,5.94
2023-04-04T13:28:57.319Z,5.84
2023-04-04T13:33:52.064Z,6.11
2023-04-04T13:38:45.266Z,5.83
2023-04-04T13:43:38.598Z,5.88
2023-04-04T13:48:31.940Z,6.11
2023-04-04T13:53:30.046Z,6.15
2023-04-04T13:58:23.285Z,5.53
2023-04-04T14:03:18.006Z,6.10
2023-04-04T14:08:11.262Z,5.96
2023-04-04T14:13:05.974Z,6.00
2023-04-04T14:17:59.329Z,5.44
2023-04-04T14:22:52.950Z,5.79
2023-04-04T14:27:46.319Z,5.95
2023-04-04T14:32:41.011Z,5.69
2023-04-04T14:37:34.282Z,5.69
2023-04-04T14:42:39.304Z,5.39
2023-04-04T14:47:34.780Z,4.58
2023-04-04T14:52:31.896Z,5.48
2023-04-04T14:57:25.362Z,5.53
2023-04-04T15:02:18.655Z,5.78
2023-04-04T15:07:26.876Z,5.52
2023-04-04T15:12:22.617Z,5.95
2023-04-04T15:17:16.204Z,5.93
2023-04-04T15:22:12.201Z,5.63
2023-04-04T15:27:05.741Z,5.90
2023-04-04T15:32:02.758Z,4.92
2023-04-04T15:37:02.366Z,5.84
2023-04-04T15:41:55.627Z,5.81
2023-04-04T15:46:48.890Z,5.79
2023-04-04T15:51:46.139Z,5.75
2023-04-04T15:56:39.487Z,5.38
2023-04-04T16:01:34.580Z,5.05
2023-04-04T16:06:30.253Z,5.37
2023-04-04T16:11:24.960Z,5.49
2023-04-04T16:16:18.330Z,5.08
2023-04-04T16:21:11.639Z,5.52
2023-04-04T16:26:05.127Z,5.47
2023-04-04T16:31:00.644Z,5.23
2023-04-04T16:35:56.762Z,5.72
2023-04-04T16:40:50.091Z,5.72
2023-04-04T16:45:45.587Z,5.71
2023-04-04T16:50:41.021Z,4.54
2023-04-04T16:55:34.694Z,5.11
2023-04-04T17:00:28.139Z,4.92
2023-04-04T17:05:21.467Z,5.65
2023-04-04T17:10:19.059Z,5.74
2023-04-04T17:15:17.309Z,5.59
2023-04-04T17:20:19.902Z,5.30
2023-04-04T17:25:13.625Z,5.82
2023-04-04T17:30:12.530Z,5.60
2023-04-04T17:35:07.017Z,5.45
2023-04-04T17:40:04.146Z,5.22
2023-04-04T17:44:58.764Z,5.62
2023-04-04T17:49:56.598Z,4.89
2023-04-04T17:54:49.856Z,5.15
2023-04-04T17:59:46.409Z,5.75
2023-04-04T18:04:39.968Z,5.51
2023-04-04T18:09:34.623Z,5.72
2023-04-04T18:14:28.513Z,5.94
2023-04-04T18:19:21.829Z,5.96
2023-04-04T18:24:17.887Z,5.90
2023-04-04T18:29:13.346Z,5.90
2023-04-04T18:34:06.615Z,5.98
2023-04-04T18:39:01.239Z,5.93
2023-04-04T18:43:54.812Z,5.79
2023-04-04T18:48:49.628Z,6.00
2023-04-04T18:53:47.254Z,5.59
2023-04-04T18:58:40.674Z,5.11
2023-04-04T19:03:40.976Z,5.31
2023-04-04T19:08:39.973Z,5.73
2023-04-04T19:13:33.299Z,5.36
2023-04-04T19:18:27.042Z,5.30
2023-04-04T19:23:43.382Z,5.55
2023-04-04T19:28:43.520Z,5.87
2023-04-04T19:33:37.170Z,5.47
2023-04-04T19:38:34.338Z,5.87
2023-04-04T19:43:30.580Z,5.38
2023-04-04T19:48:48.985Z,5.65
2023-04-04T19:53:46.938Z,5.45
2023-04-04T19:58:55.817Z,5.23
2023-04-04T20:03:53.146Z,5.39
2023-04-04T20:08:52.170Z,5.72
2023-04-04T20:13:47.316Z,5.08
2023-04-04T20:18:45.001Z,5.68
2023-04-04T20:23:47.402Z,5.79
2023-04-04T20:28:47.387Z,5.76
2023-04-04T20:33:42.291Z,5.75
2023-04-04T20:38:36.993Z,5.51
2023-04-04T20:43:30.933Z,5.70
2023-04-04T20:48:43.897Z,5.35
2023-04-04T20:53:43.777Z,5.59
2023-04-04T20:58:37.771Z,4.89
2023-04-04T21:03:33.882Z,5.52
2023-04-04T21:08:39.685Z,5.23
2023-04-04T21:13:37.436Z,5.27
2023-04-04T21:18:33.014Z,5.47
2023-04-04T21:23:33.928Z,5.45
2023-04-04T21:28:38.111Z,4.91
2023-04-04T21:33:33.309Z,5.03
2023-04-04T21:38:30.449Z,4.84
2023-04-04T21:43:25.171Z,4.76
2023-04-04T21:48:18.602Z,4.21
2023-04-04T21:53:13.356Z,5.40
2023-04-04T21:58:06.687Z,4.45
2023-04-04T22:02:59.980Z,4.64
2023-04-04T22:07:53.262Z,4.66
2023-04-04T22:12:49.894Z,4.69
2023-04-04T22:17:43.255Z,4.05
2023-04-04T22:22:37.153Z,5.45
2023-04-04T22:28:07.559Z,4.89
2023-04-04T22:33:20.397Z,3.95
2023-04-04T22:38:27.738Z,5.45
2023-04-04T22:43:33.737Z,4.52
2023-04-04T22:48:42.719Z,5.46
2023-04-04T22:53:36.947Z,4.83
2023-04-04T22:58:32.918Z,5.41
2023-04-04T23:03:50.094Z,5.30
2023-04-04T23:08:44.717Z,4.68
2023-04-04T23:13:40.127Z,4.88
2023-04-04T23:18:47.663Z,5.23
2023-04-04T23:23:42.479Z,5.48
2023-04-04T23:28:35.978Z,4.90
2023-04-04T23:33:30.606Z,5.10
2023-04-04T23:38:23.939Z,5.38
2023-04-04T23:43:18.536Z,5.29
2023-04-04T23:48:12.594Z,5.26
2023-04-04T23:53:05.810Z,5.42
2023-04-04T23:58:00.999Z,5.11
